createdAt,value
2023-02-11T00:01:33.926Z,16.77
2023-02-11T00:04:01.095Z,14.57
2023-02-11T00:06:29.501Z,14.27
2023-02-11T00:08:56.160Z,15.13
2023-02-11T00:11:25.537Z,15.07
2023-02-11T00:13:52.095Z,14.90
2023-02-11T00:16:20.544Z,15.50
2023-02-11T00:18:47.652Z,14.63
2023-02-11T00:21:20.240Z,15.67
2023-02-11T00:23:47.541Z,14.10
2023-02-11T00:26:19.803Z,13.57
2023-02-11T00:28:47.156Z,13.90
2023-02-11T00:31:15.325Z,15.37
2023-02-11T00:33:42.540Z,15.20
2023-02-11T00:36:13.188Z,15.20
2023-02-11T00:38:39.788Z,13.87
2023-02-11T00:41:06.216Z,16.00
2023-02-11T00:43:32.709Z,15.77
2023-02-11T00:45:59.776Z,16.37
2023-02-11T00:48:26.276Z,16.80
2023-02-11T00:50:52.743Z,16.17
2023-02-11T00:53:19.162Z,16.50
2023-02-11T00:55:45.660Z,15.43
2023-02-11T00:58:12.193Z,15.43
2023-02-11T01:00:38.654Z,14.83
2023-02-11T01:03:05.148Z,14.33
2023-02-11T01:05:31.689Z,14.87
2023-02-11T01:07:58.677Z,13.73
2023-02-11T01:10:25.523Z,14.27
2023-02-11T01:12:52.092Z,14.80
2023-02-11T01:15:19.965Z,15.03
2023-02-11T01:17:46.439Z,13.40
2023-02-11T01:20:20.765Z,15.60
2023-02-11T01:22:47.292Z,14.90
2023-02-11T01:25:14.588Z,15.87
2023-02-11T01:27:41.203Z,14.13
2023-02-11T01:30:09.297Z,13.37
2023-02-11T01:32:36.134Z,15.00
2023-02-11T01:35:03.034Z,16.03
2023-02-11T01:37:29.555Z,13.97
2023-02-11T01:39:55.990Z,14.83
2023-02-11T01:42:23.606Z,14.47
2023-02-11T01:44:51.431Z,14.40
2023-02-11T01:47:18.920Z,15.37
2023-02-11T01:49:56.789Z,14.50
2023-02-11T01:52:31.969Z,14.20
2023-02-11T01:55:27.923Z,14.53
2023-02-11T01:57:57.754Z,14.27
2023-02-11T02:00:40.286Z,14.10
2023-02-11T02:03:15.366Z,14.50
2023-02-11T02:06:10.880Z,15.20
2023-02-11T02:08:50.368Z,15.07
2023-02-11T02:11:16.982Z,15.00
2023-02-11T02:13:43.651Z,14.70
2023-02-11T02:16:16.251Z,15.27
2023-02-11T02:19:00.865Z,13.40
2023-02-11T02:21:39.956Z,15.00
2023-02-11T02:24:56.556Z,13.23
2023-02-11T02:27:37.539Z,14.60
2023-02-11T02:30:40.662Z,14.87
2023-02-11T02:33:38.483Z,13.83
2023-02-11T02:36:04.917Z,13.33
2023-02-11T02:38:42.722Z,13.83
2023-02-11T02:41:16.061Z,14.20
2023-02-11T02:43:45.139Z,14.50
2023-02-11T02:46:21.858Z,14.53
2023-02-11T02:48:49.761Z,14.83
2023-02-11T02:51:19.138Z,13.93
2023-02-11T02:54:19.588Z,14.30
2023-02-11T02:56:53.804Z,14.17
2023-02-11T02:59:49.088Z,13.93
2023-02-11T03:02:26.736Z,14.07
2023-02-11T03:04:59.318Z,13.17
2023-02-11T03:07:31.376Z,14.43
2023-02-11T03:10:07.329Z,14.87
2023-02-11T03:12:35.866Z,14.40
2023-02-11T03:15:05.474Z,13.60
2023-02-11T03:17:35.139Z,13.17
2023-02-11T03:20:06.602Z,13.40
2023-02-11T03:22:38.692Z,14.20
2023-02-11T03:25:05.970Z,14.47
2023-02-11T03:27:41.245Z,15.17
2023-02-11T03:30:20.355Z,13.77
2023-02-11T03:33:02.695Z,15.87
2023-02-11T03:35:36.578Z,14.97
2023-02-11T03:38:12.596Z,15.07
2023-02-11T03:40:41.055Z,17.00
2023-02-11T03:43:12.940Z,16.23
2023-02-11T03:45:40.248Z,15.50
2023-02-11T03:48:19.195Z,15.30
2023-02-11T03:50:48.372Z,14.93
2023-02-11T03:53:16.089Z,14.97
2023-02-11T03:55:43.914Z,15.40
2023-02-11T03:58:10.873Z,15.63
2023-02-11T04:00:39.757Z,14.93
2023-02-11T04:03:07.599Z,15.17
2023-02-11T04:05:34.196Z,14.00
2023-02-11T04:08:01.035Z,15.67
2023-02-11T04:10:27.459Z,14.67
2023-02-11T04:12:53.989Z,13.93
2023-02-11T04:15:20.597Z,13.80
2023-02-11T04:17:47.017Z,14.00
2023-02-11T04:20:13.443Z,14.97
2023-02-11T04:22:40.206Z,15.30
2023-02-11T04:25:07.221Z,16.53
2023-02-11T04:27:33.653Z,14.87
2023-02-11T04:30:00.056Z,14.47
2023-02-11T04:32:26.431Z,14.03
2023-02-11T04:34:54.310Z,13.70
2023-02-11T04:37:21.207Z,13.80
2023-02-11T04:39:47.614Z,14.03
2023-02-11T04:42:16.782Z,14.10
2023-02-11T04:44:43.294Z,14.10
2023-02-11T04:47:09.724Z,13.77
2023-02-11T04:49:36.259Z,14.20
2023-02-11T04:52:02.667Z,14.50
2023-02-11T04:54:29.160Z,15.07
2023-02-11T04:56:55.613Z,14.10
2023-02-11T04:59:22.042Z,13.67
2023-02-11T05:01:49.686Z,15.50
2023-02-11T05:04:16.791Z,14.80
2023-02-11T05:06:43.472Z,14.43
2023-02-11T05:09:11.851Z,14.87
2023-02-11T05:11:39.394Z,14.63
2023-02-11T05:14:07.055Z,14.37
2023-02-11T05:16:33.769Z,14.63
2023-02-11T05:19:00.682Z,14.90
2023-02-11T05:21:27.175Z,14.47
2023-02-11T05:23:53.676Z,14.03
2023-02-11T05:26:20.159Z,14.97
2023-02-11T05:28:46.665Z,13.67
2023-02-11T05:31:14.590Z,14.23
2023-02-11T05:33:41.745Z,14.20
2023-02-11T05:36:10.862Z,13.77
2023-02-11T05:38:38.232Z,14.07
2023-02-11T05:41:06.429Z,13.83
2023-02-11T05:43:34.798Z,14.47
2023-02-11T05:46:01.520Z,14.10
2023-02-11T05:48:28.003Z,13.53
2023-02-11T05:50:54.589Z,13.80
2023-02-11T05:53:21.028Z,13.50
2023-02-11T05:55:47.546Z,13.20
2023-02-11T05:58:14.006Z,13.27
2023-02-11T06:00:40.530Z,13.67
2023-02-11T06:03:07.003Z,13.60
2023-02-11T06:05:33.444Z,14.37
2023-02-11T06:07:59.923Z,13.63
2023-02-11T06:10:26.705Z,13.57
2023-02-11T06:12:53.308Z,14.13
2023-02-11T06:15:19.927Z,14.10
2023-02-11T06:17:46.427Z,14.63
2023-02-11T06:20:12.922Z,13.87
2023-02-11T06:22:39.330Z,14.30
2023-02-11T06:25:06.250Z,14.60
2023-02-11T06:27:32.725Z,13.13
2023-02-11T06:29:59.120Z,14.20
2023-02-11T06:32:45.536Z,14.33
2023-02-11T06:35:13.524Z,13.27
2023-02-11T06:37:40.980Z,14.07
2023-02-11T06:40:07.941Z,12.90
2023-02-11T06:42:36.124Z,13.33
2023-02-11T06:45:02.821Z,13.40
2023-02-11T06:47:29.271Z,13.97
2023-02-11T06:49:55.668Z,13.17
2023-02-11T06:52:22.208Z,14.07
2023-02-11T06:54:48.626Z,13.40
2023-02-11T06:57:15.008Z,13.20
2023-02-11T06:59:41.649Z,14.73
2023-02-11T07:02:10.457Z,15.50
2023-02-11T07:04:36.966Z,15.00
2023-02-11T07:07:03.507Z,14.53
2023-02-11T07:09:30.488Z,14.07
2023-02-11T07:11:57.111Z,13.50
2023-02-11T07:14:23.732Z,13.70
2023-02-11T07:16:50.153Z,13.40
2023-02-11T07:19:17.136Z,14.50
2023-02-11T07:21:43.713Z,14.27
2023-02-11T07:24:11.226Z,13.83
2023-02-11T07:26:37.802Z,14.23
2023-02-11T07:29:04.308Z,13.97
2023-02-11T07:31:31.220Z,14.63
2023-02-11T07:34:00.003Z,14.20
2023-02-11T07:36:27.855Z,14.67
2023-02-11T07:38:58.484Z,15.07
2023-02-11T07:41:27.613Z,14.07
2023-02-11T07:44:00.940Z,12.53
2023-02-11T07:46:29.713Z,14.60
2023-02-11T07:49:01.074Z,14.73
2023-02-11T07:51:37.129Z,12.37
2023-02-11T07:54:04.742Z,11.57
2023-02-11T07:56:32.532Z,13.03
2023-02-11T07:59:03.681Z,10.90
2023-02-11T08:01:30.679Z,11.47
2023-02-11T08:03:59.325Z,12.57
2023-02-11T08:06:28.288Z,12.23
2023-02-11T08:08:55.128Z,12.97
2023-02-11T08:11:24.413Z,11.27
2023-02-11T08:13:51.515Z,12.83
2023-02-11T08:16:24.849Z,9.50
2023-02-11T08:18:53.027Z,13.07
2023-02-11T08:21:24.771Z,11.40
2023-02-11T08:23:51.892Z,12.13
2023-02-11T08:26:21.886Z,11.30
2023-02-11T08:28:50.014Z,11.83
2023-02-11T08:31:33.957Z,11.93
2023-02-11T08:34:05.006Z,12.67
2023-02-11T08:36:45.035Z,12.13
2023-02-11T08:39:20.360Z,12.13
2023-02-11T08:41:50.317Z,12.93
2023-02-11T08:44:18.481Z,12.63
2023-02-11T08:46:45.023Z,12.13
2023-02-11T08:49:11.843Z,13.30
2023-02-11T08:51:38.265Z,14.57
2023-02-11T08:54:06.156Z,14.57
2023-02-11T08:56:33.579Z,14.67
2023-02-11T08:59:00.057Z,13.83
2023-02-11T09:01:29.646Z,12.17
2023-02-11T09:03:57.340Z,13.40
2023-02-11T09:06:25.057Z,11.40
2023-02-11T09:08:54.244Z,12.00
2023-02-11T09:11:24.921Z,12.33
2023-02-11T09:13:53.988Z,12.53
2023-02-11T09:16:24.856Z,14.30
2023-02-11T09:18:51.553Z,11.47
2023-02-11T09:21:19.916Z,11.40
2023-02-11T09:23:47.806Z,11.13
2023-02-11T09:26:14.319Z,10.73
2023-02-11T09:28:40.973Z,10.33
2023-02-11T09:31:10.016Z,9.87
2023-02-11T09:33:37.714Z,9.37
2023-02-11T09:36:05.931Z,10.07
2023-02-11T09:38:33.084Z,10.00
2023-02-11T09:40:59.753Z,12.13
2023-02-11T09:43:46.841Z,9.27
2023-02-11T09:46:16.180Z,10.50
2023-02-11T09:48:45.567Z,10.83
2023-02-11T09:51:47.246Z,11.30
2023-02-11T09:54:23.311Z,9.93
2023-02-11T09:56:49.766Z,11.40
2023-02-11T09:59:17.589Z,11.17
2023-02-11T10:01:50.369Z,11.80
2023-02-11T10:04:44.858Z,11.73
2023-02-11T10:07:17.391Z,11.20
2023-02-11T10:09:55.191Z,10.50
2023-02-11T10:12:44.011Z,11.17
2023-02-11T10:15:35.112Z,10.67
2023-02-11T10:18:38.474Z,9.47
2023-02-11T10:21:36.934Z,10.77
2023-02-11T10:24:10.079Z,10.93
2023-02-11T10:26:39.584Z,10.40
2023-02-11T10:29:21.767Z,10.97
2023-02-11T10:31:49.277Z,9.93
2023-02-11T10:34:15.872Z,10.40
2023-02-11T10:36:44.635Z,9.33
2023-02-11T10:39:23.267Z,8.67
2023-02-11T10:42:10.022Z,7.00
2023-02-11T10:44:40.199Z,7.53
2023-02-11T10:47:25.490Z,8.00
2023-02-11T10:49:51.935Z,6.33
2023-02-11T10:52:24.797Z,7.63
2023-02-11T10:55:22.825Z,6.80
2023-02-11T10:58:01.811Z,7.50
2023-02-11T11:00:38.925Z,6.53
2023-02-11T11:03:27.801Z,6.87
2023-02-11T11:05:58.745Z,6.53
2023-02-11T11:08:41.810Z,7.17
2023-02-11T11:11:11.356Z,4.30
2023-02-11T11:13:40.189Z,6.37
2023-02-11T11:16:22.284Z,5.23
2023-02-11T11:18:51.661Z,4.60
2023-02-11T11:21:28.703Z,6.10
2023-02-11T11:23:58.484Z,6.87
2023-02-11T11:26:29.126Z,5.17
2023-02-11T11:29:00.848Z,7.37
2023-02-11T11:31:32.205Z,6.80
2023-02-11T11:34:01.276Z,6.87
2023-02-11T11:36:40.201Z,7.40
2023-02-11T11:39:34.119Z,5.77
2023-02-11T11:42:03.274Z,5.10
2023-02-11T11:44:35.654Z,6.00
2023-02-11T11:47:11.480Z,4.70
2023-02-11T11:49:42.846Z,4.87
2023-02-11T11:52:12.191Z,4.87
2023-02-11T11:54:40.162Z,6.10
2023-02-11T11:57:22.014Z,5.00
2023-02-11T11:59:48.609Z,5.27
2023-02-11T12:02:36.549Z,4.50
2023-02-11T12:05:25.372Z,5.20
2023-02-11T12:08:08.467Z,5.23
2023-02-11T12:10:55.080Z,5.33
2023-02-11T12:13:29.798Z,3.80
2023-02-11T12:16:10.086Z,5.13
2023-02-11T12:19:13.552Z,5.30
2023-02-11T12:22:00.938Z,4.57
2023-02-11T12:24:55.914Z,5.10
2023-02-11T12:27:28.620Z,3.33
2023-02-11T12:30:22.816Z,4.33
2023-02-11T12:32:57.774Z,5.37
2023-02-11T12:35:42.351Z,5.57
2023-02-11T12:38:41.001Z,5.93
2023-02-11T12:41:52.941Z,5.40
2023-02-11T12:45:01.258Z,4.77
2023-02-11T12:47:38.984Z,4.10
2023-02-11T12:50:35.961Z,4.33
2023-02-11T12:53:35.012Z,5.43
2023-02-11T12:56:08.309Z,5.63
2023-02-11T12:58:44.996Z,4.53
2023-02-11T13:01:43.618Z,4.63
2023-02-11T13:04:24.523Z,5.97
2023-02-11T13:07:05.424Z,5.30
2023-02-11T13:09:52.243Z,6.60
2023-02-11T13:12:37.757Z,7.57
2023-02-11T13:15:07.693Z,5.43
2023-02-11T13:17:48.159Z,6.73
2023-02-11T13:20:28.470Z,5.70
2023-02-11T13:23:30.556Z,7.00
2023-02-11T13:26:10.494Z,9.03
2023-02-11T13:29:01.646Z,9.80
2023-02-11T13:31:30.136Z,7.30
2023-02-11T13:33:56.712Z,9.33
2023-02-11T13:36:26.609Z,2.57
2023-02-11T13:38:59.953Z,9.80
2023-02-11T13:41:33.042Z,11.00
2023-02-11T13:44:08.303Z,10.93
2023-02-11T13:46:59.869Z,9.90
2023-02-11T13:49:37.486Z,9.60
2023-02-11T13:52:16.273Z,8.43
2023-02-11T13:54:49.482Z,8.53
2023-02-11T13:57:21.929Z,5.70
2023-02-11T13:59:51.870Z,13.07
2023-02-11T14:02:53.545Z,26.87
2023-02-11T14:05:46.544Z,8.67
2023-02-11T14:08:37.659Z,10.90
2023-02-11T14:11:23.627Z,10.23
2023-02-11T14:13:53.087Z,10.20
2023-02-11T14:16:36.988Z,8.13
2023-02-11T14:19:06.771Z,7.93
2023-02-11T14:21:37.107Z,8.57
2023-02-11T14:24:04.907Z,8.80
2023-02-11T14:29:34.813Z,6.30
2023-02-11T14:32:38.092Z,2.20
2023-02-11T14:35:39.479Z,9.23
2023-02-11T14:38:35.091Z,7.40
2023-02-11T14:41:16.747Z,8.50
2023-02-11T14:43:47.893Z,7.60
2023-02-11T14:46:19.702Z,7.63
2023-02-11T14:48:50.395Z,6.60
2023-02-11T14:51:23.285Z,8.50
2023-02-11T14:53:52.096Z,10.07
2023-02-11T14:56:20.315Z,7.53
2023-02-11T14:58:51.860Z,7.17
2023-02-11T15:01:32.396Z,8.27
2023-02-11T15:04:00.524Z,6.27
2023-02-11T15:06:32.768Z,9.18
2023-02-11T15:09:13.143Z,8.50
2023-02-11T15:11:42.577Z,6.23
2023-02-11T15:14:15.158Z,6.80
2023-02-11T15:16:44.638Z,7.37
2023-02-11T15:19:21.677Z,6.10
2023-02-11T15:21:50.671Z,7.23
2023-02-11T15:24:32.100Z,2.57
2023-02-11T15:27:12.673Z,7.67
2023-02-11T15:29:47.088Z,6.33
2023-02-11T15:32:18.213Z,13.07
2023-02-11T15:34:46.103Z,10.83
2023-02-11T15:37:32.866Z,10.30
2023-02-11T15:40:15.972Z,8.83
2023-02-11T15:42:56.207Z,7.97
2023-02-11T15:45:30.952Z,6.80
2023-02-11T15:48:14.465Z,8.67
2023-02-11T15:50:43.053Z,7.73
2023-02-11T15:53:25.481Z,7.40
2023-02-11T15:56:08.663Z,7.70
2023-02-11T15:58:40.111Z,8.13
2023-02-11T16:01:08.879Z,7.00
2023-02-11T16:03:35.806Z,8.83
2023-02-11T16:06:26.599Z,9.00
2023-02-11T16:09:08.320Z,8.30
2023-02-11T16:11:54.884Z,8.97
2023-02-11T16:14:24.002Z,8.80
2023-02-11T16:16:53.044Z,8.10
2023-02-11T16:19:24.211Z,8.63
2023-02-11T16:21:53.500Z,6.87
2023-02-11T16:24:32.764Z,8.70
2023-02-11T16:27:02.083Z,8.50
2023-02-11T16:29:32.003Z,10.53
2023-02-11T16:32:14.984Z,9.40
2023-02-11T16:34:41.665Z,9.97
2023-02-11T16:37:08.231Z,9.83
2023-02-11T16:39:34.945Z,8.63
2023-02-11T16:42:02.464Z,10.30
2023-02-11T16:44:29.101Z,8.20
2023-02-11T16:46:59.594Z,9.73
2023-02-11T16:49:27.802Z,10.63
2023-02-11T16:51:56.924Z,11.43
2023-02-11T16:54:23.766Z,13.88
2023-02-11T16:56:50.451Z,12.80
2023-02-11T16:59:16.869Z,10.17
2023-02-11T17:01:44.887Z,10.40
2023-02-11T17:04:33.450Z,12.93
2023-02-11T17:07:00.132Z,13.13
2023-02-11T17:09:30.470Z,12.47
2023-02-11T17:11:57.623Z,11.90
2023-02-11T17:14:24.342Z,13.23
2023-02-11T17:16:50.955Z,15.57
2023-02-11T17:19:22.297Z,13.17
2023-02-11T17:21:51.922Z,12.20
2023-02-11T17:24:20.222Z,14.13
2023-02-11T17:26:47.500Z,12.57
2023-02-11T17:29:17.326Z,11.93
2023-02-11T17:31:44.321Z,12.37
2023-02-11T17:34:10.985Z,12.47
2023-02-11T17:36:37.469Z,11.30
2023-02-11T17:39:07.722Z,11.57
2023-02-11T17:41:36.106Z,12.13
2023-02-11T17:44:02.565Z,12.03
2023-02-11T17:46:29.187Z,13.20
2023-02-11T17:48:58.610Z,12.17
2023-02-11T17:51:25.063Z,14.20
2023-02-11T17:53:52.328Z,14.67
2023-02-11T17:56:19.040Z,15.83
2023-02-11T17:58:46.031Z,13.93
2023-02-11T18:01:12.613Z,14.70
2023-02-11T18:03:39.133Z,17.50
2023-02-11T18:06:06.932Z,21.17
2023-02-11T18:08:34.837Z,20.33
2023-02-11T18:11:01.532Z,16.80
2023-02-11T18:13:28.853Z,13.50
2023-02-11T18:15:55.809Z,14.07
2023-02-11T18:18:22.300Z,12.10
2023-02-11T18:20:59.601Z,12.20
2023-02-11T18:23:27.335Z,12.33
2023-02-11T18:25:54.144Z,14.07
2023-02-11T18:28:20.892Z,13.40
2023-02-11T18:30:47.503Z,13.20
2023-02-11T18:33:14.462Z,13.57
2023-02-11T18:35:43.402Z,13.90
2023-02-11T18:38:09.868Z,13.10
2023-02-11T18:40:39.814Z,14.33
2023-02-11T18:43:07.156Z,12.50
2023-02-11T18:45:34.020Z,12.93
2023-02-11T18:48:05.178Z,12.33
2023-02-11T18:50:31.779Z,13.60
2023-02-11T18:52:58.186Z,13.23
2023-02-11T18:55:25.913Z,13.17
2023-02-11T18:57:52.946Z,13.17
2023-02-11T19:00:21.057Z,13.00
2023-02-11T19:02:47.448Z,12.80
2023-02-11T19:05:14.144Z,12.90
2023-02-11T19:07:40.616Z,13.57
2023-02-11T19:10:08.004Z,13.40
2023-02-11T19:12:34.873Z,12.20
2023-02-11T19:15:02.467Z,12.57
2023-02-11T19:17:28.899Z,12.57
2023-02-11T19:19:55.343Z,13.80
2023-02-11T19:22:21.754Z,13.53
2023-02-11T19:24:48.363Z,12.50
2023-02-11T19:27:14.764Z,13.00
2023-02-11T19:29:41.349Z,12.83
2023-02-11T19:32:08.038Z,13.47
2023-02-11T19:34:41.035Z,13.23
2023-02-11T19:37:12.934Z,12.83
2023-02-11T19:39:40.525Z,13.00
2023-02-11T19:49:37.138Z,12.57
2023-02-11T20:40:32.249Z,13.00
2023-02-11T20:42:58.659Z,12.97
2023-02-11T20:45:25.033Z,14.00
2023-02-11T20:47:51.455Z,13.70
2023-02-11T20:50:17.878Z,13.40
2023-02-11T20:52:44.579Z,13.17
2023-02-11T20:55:11.086Z,13.33
2023-02-11T20:57:37.517Z,13.63
2023-02-11T21:00:04.191Z,14.57
2023-02-11T21:02:30.603Z,14.53
2023-02-11T21:04:56.970Z,14.30
2023-02-11T21:07:23.385Z,14.10
2023-02-11T21:09:49.792Z,14.60
2023-02-11T21:12:16.264Z,14.77
2023-02-11T21:14:42.725Z,14.43
2023-02-11T21:17:09.176Z,15.20
2023-02-11T21:19:35.568Z,14.27
2023-02-11T21:22:01.932Z,14.50
2023-02-11T21:24:28.420Z,15.00
2023-02-11T21:26:54.897Z,14.37
2023-02-11T21:29:21.285Z,14.17
2023-02-11T21:31:47.871Z,13.93
2023-02-11T21:34:16.049Z,14.43
2023-02-11T21:36:42.989Z,14.70
2023-02-11T21:39:09.697Z,13.73
2023-02-11T21:41:37.305Z,14.93
2023-02-11T21:44:03.735Z,15.33
2023-02-11T21:46:30.894Z,15.40
2023-02-11T21:48:57.692Z,13.30
2023-02-11T21:51:25.902Z,15.73
2023-02-11T21:53:53.950Z,15.00
2023-02-11T21:56:20.410Z,16.87
2023-02-11T21:58:47.329Z,15.90
2023-02-11T22:01:19.470Z,15.07
2023-02-11T22:03:46.345Z,15.00
2023-02-11T22:06:16.013Z,16.20
2023-02-11T22:08:42.833Z,16.03
2023-02-11T22:11:12.187Z,17.03
2023-02-11T22:13:39.440Z,15.93
2023-02-11T22:16:09.684Z,16.73
2023-02-11T22:18:36.886Z,17.53
2023-02-11T22:21:11.756Z,17.13
2023-02-11T22:23:39.207Z,16.07
2023-02-11T22:26:13.382Z,16.90
2023-02-11T22:28:40.822Z,16.33
2023-02-11T22:31:16.381Z,16.60
2023-02-11T22:33:43.418Z,15.87
2023-02-11T22:36:18.886Z,15.70
2023-02-11T22:38:45.779Z,16.10
2023-02-11T22:41:12.844Z,16.10
2023-02-11T22:43:39.452Z,15.87
2023-02-11T22:46:07.873Z,15.93
2023-02-11T22:48:35.637Z,15.23
2023-02-11T22:51:12.679Z,15.87
2023-02-11T22:53:39.171Z,15.70
2023-02-11T22:56:08.578Z,16.83
2023-02-11T22:58:36.280Z,14.93
2023-02-11T23:01:03.755Z,16.17
2023-02-11T23:03:31.260Z,16.40
2023-02-11T23:05:59.494Z,14.83
2023-02-11T23:08:27.691Z,14.97
2023-02-11T23:10:54.505Z,16.57
2023-02-11T23:13:21.373Z,15.33
2023-02-11T23:15:48.142Z,14.90
2023-02-11T23:18:14.870Z,15.80
2023-02-11T23:20:43.209Z,16.23
2023-02-11T23:23:09.832Z,15.20
2023-02-11T23:25:42.834Z,15.30
2023-02-11T23:28:10.011Z,15.03
2023-02-11T23:30:39.600Z,15.07
2023-02-11T23:33:06.062Z,15.17
2023-02-11T23:35:33.230Z,16.30
2023-02-11T23:37:59.708Z,15.80
2023-02-11T23:40:26.176Z,15.03
2023-02-11T23:42:52.698Z,14.57
2023-02-11T23:45:19.166Z,14.80
2023-02-11T23:47:45.805Z,15.37
2023-02-11T23:50:12.474Z,14.33
2023-02-11T23:52:38.996Z,15.10
2023-02-11T23:55:06.283Z,16.33
2023-02-11T23:57:33.373Z,15.53
2023-02-11T23:59:59.882Z,14.90
